Leni P. — A8XW5 — position and weather

sailwx.info

Track history (hours):
 
Tides and Currents Weather Stations Pressure Air Temp Water Temp Dewpoint Dewpoint Depression Visibility Wind Speed Wind Dir Waves Ship Positions

Leni P.

Last reported at 2015-May-06 18:06 UTC. Time now 2015-May-22 08:34 UTC.
Position N 57°49' E 010°23'.
Warning: this ship's position is 15 days out of date.

Length 274 m; draft 15 m.

Type: Tanker. MMSI: 636014986.

Date/timePositionNaut miles runAvg speedWind from/ knotsBaromVisibWave heightAir tempDewpointWater temp
2015-May-06 18:06N 57°49' E 010°23'611.2
2015-May-06 17:33N 57°49' E 010°34'9 9.1
2015-May-06 16:33N 57°45' E 010°49'5 4.9
2015-May-06 15:32N 57°42' E 010°42'0 0.0
2015-May-06 14:26N 57°42' E 010°42'0 0.0
2015-May-06 13:32N 57°42' E 010°42'0 0.0
2015-May-06 12:32N 57°42' E 010°42'0 0.0
2015-May-06 11:29N 57°42' E 010°42'0 0.0
2015-May-06 10:32N 57°42' E 010°42'0 0.0
2015-May-06 09:26N 57°42' E 010°42'0 0.0
2015-May-06 08:26N 57°42' E 010°42'0 0.0
2015-May-06 07:29N 57°42' E 010°42'0 0.0
2015-May-06 06:29N 57°42' E 010°42'0 0.2
2015-May-06 05:33N 57°41' E 010°42'4 4.1
2015-May-06 04:32N 57°39' E 010°48'1212.4
2015-May-06 03:33N 57°33' E 011°07'1211.7
2015-May-06 02:33N 57°27' E 011°26'1312.5
2015-May-06 01:33N 57°15' E 011°34'1212.3
2015-May-06 00:33N 57°04' E 011°42'1212.1
2015-May-05 23:33N 56°52' E 011°49'1110.8
2015-May-05 22:33N 56°41' E 011°49'1211.9
2015-May-05 21:33N 56°31' E 011°38'8011.1
2015-May-05 14:20N 55°13' E 011°06'3511.6
2015-May-05 11:19N 54°39' E 010°51'1012.4
2015-May-05 10:33N 54°36' E 011°06'1312.7
2015-May-05 09:33N 54°31' E 011°27'1312.7
2015-May-05 08:33N 54°27' E 011°47'1212.3
2015-May-05 07:33N 54°26' E 012°08'1111.1
2015-May-05 06:33N 54°36' E 012°17'1211.5
2015-May-05 05:33N 54°43' E 012°34'1211.8
2015-May-05 04:33N 54°48' E 012°52'1212.4
2015-May-05 03:33N 54°53' E 013°12'1312.6
2015-May-05 02:33N 54°58' E 013°32'1212.4
2015-May-05 01:33N 55°02' E 013°53'1211.9
2015-May-05 00:33N 55°07' E 014°11'1212.0
2015-May-04 23:33N 55°13' E 014°30'1211.5
2015-May-04 22:33N 55°19' E 014°46'9 9.4
2015-May-04 21:33N 55°23' E 015°02'1212.0
2015-May-04 20:33N 55°28' E 015°21'35411.4
2015-May-03 13:32N 59°37' E 023°10'1212.4
2015-May-03 12:33N 59°40' E 023°33'1412.4
2015-May-03 11:27N 59°44' E 023°59'1112.4
2015-May-03 10:33N 59°47' E 024°21'1312.5
2015-May-03 09:32N 59°49' E 024°45'5312.2
2015-May-03 05:13N 60°01' E 026°27'811.5
2015-May-03 04:33N 60°01' E 026°43'1611.2
2015-May-03 03:10N 60°03' E 027°14'  
Track history (hours):
 
Tides and Currents Weather Stations Pressure Air Temp Water Temp Dewpoint Dewpoint Depression Visibility Wind Speed Wind Dir Waves Ship Positions

Leni P.

Last reported at 2015-May-06 18:06 UTC. Time now 2015-May-22 08:34 UTC.
Position N 57°49' E 010°23'.
Warning: this ship's position is 15 days out of date.

Length 274 m; draft 15 m.

Type: Tanker. MMSI: 636014986.

Date/timePositionNaut miles runAvg speedWind from/ knotsBaromVisibWave heightAir tempDewpointWater temp
2015-May-06 18:06N 57°49' E 010°23'611.2
2015-May-06 17:33N 57°49' E 010°34'9 9.1
2015-May-06 16:33N 57°45' E 010°49'5 4.9
2015-May-06 15:32N 57°42' E 010°42'0 0.0
2015-May-06 14:26N 57°42' E 010°42'0 0.0
2015-May-06 13:32N 57°42' E 010°42'0 0.0
2015-May-06 12:32N 57°42' E 010°42'0 0.0
2015-May-06 11:29N 57°42' E 010°42'0 0.0
2015-May-06 10:32N 57°42' E 010°42'0 0.0
2015-May-06 09:26N 57°42' E 010°42'0 0.0
2015-May-06 08:26N 57°42' E 010°42'0 0.0
2015-May-06 07:29N 57°42' E 010°42'0 0.0
2015-May-06 06:29N 57°42' E 010°42'0 0.2
2015-May-06 05:33N 57°41' E 010°42'4 4.1
2015-May-06 04:32N 57°39' E 010°48'1212.4
2015-May-06 03:33N 57°33' E 011°07'1211.7
2015-May-06 02:33N 57°27' E 011°26'1312.5
2015-May-06 01:33N 57°15' E 011°34'1212.3
2015-May-06 00:33N 57°04' E 011°42'1212.1
2015-May-05 23:33N 56°52' E 011°49'1110.8
2015-May-05 22:33N 56°41' E 011°49'1211.9
2015-May-05 21:33N 56°31' E 011°38'8011.1
2015-May-05 14:20N 55°13' E 011°06'3511.6
2015-May-05 11:19N 54°39' E 010°51'1012.4
2015-May-05 10:33N 54°36' E 011°06'1312.7
2015-May-05 09:33N 54°31' E 011°27'1312.7
2015-May-05 08:33N 54°27' E 011°47'1212.3
2015-May-05 07:33N 54°26' E 012°08'1111.1
2015-May-05 06:33N 54°36' E 012°17'1211.5
2015-May-05 05:33N 54°43' E 012°34'1211.8
2015-May-05 04:33N 54°48' E 012°52'1212.4
2015-May-05 03:33N 54°53' E 013°12'1312.6
2015-May-05 02:33N 54°58' E 013°32'1212.4
2015-May-05 01:33N 55°02' E 013°53'1211.9
2015-May-05 00:33N 55°07' E 014°11'1212.0
2015-May-04 23:33N 55°13' E 014°30'1211.5
2015-May-04 22:33N 55°19' E 014°46'9 9.4
2015-May-04 21:33N 55°23' E 015°02'1212.0
2015-May-04 20:33N 55°28' E 015°21'35411.4
2015-May-03 13:32N 59°37' E 023°10'1212.4
2015-May-03 12:33N 59°40' E 023°33'1412.4
2015-May-03 11:27N 59°44' E 023°59'1112.4
2015-May-03 10:33N 59°47' E 024°21'1312.5
2015-May-03 09:32N 59°49' E 024°45'5312.2
2015-May-03 05:13N 60°01' E 026°27'811.5
2015-May-03 04:33N 60°01' E 026°43'1611.2
2015-May-03 03:10N 60°03' E 027°14'  

Dump ship's entire track history